createdAt,value
2018-10-17T00:01:42.293Z,11.29
2018-10-17T00:04:10.786Z,11.26
2018-10-17T00:06:39.335Z,11.24
2018-10-17T00:09:09.366Z,11.15
2018-10-17T00:11:38.230Z,11.12
2018-10-17T00:14:07.098Z,11.05
2018-10-17T00:16:35.605Z,11.05
2018-10-17T00:19:09.601Z,11.12
2018-10-17T00:21:38.110Z,11.05
2018-10-17T00:24:06.650Z,10.99
2018-10-17T00:26:35.248Z,10.92
2018-10-17T00:29:03.812Z,10.94
2018-10-17T00:31:32.272Z,10.86
2018-10-17T00:34:00.778Z,10.88
2018-10-17T00:36:29.272Z,10.81
2018-10-17T00:38:57.775Z,10.84
2018-10-17T00:41:26.323Z,10.73
2018-10-17T00:43:54.839Z,10.65
2018-10-17T00:46:23.344Z,10.64
2018-10-17T00:48:51.906Z,10.56
2018-10-17T00:51:20.393Z,10.56
2018-10-17T00:53:48.955Z,10.50
2018-10-17T00:56:17.490Z,10.53
2018-10-17T00:58:57.133Z,10.57
2018-10-17T01:01:25.623Z,10.56
2018-10-17T01:03:54.147Z,10.49
2018-10-17T01:06:22.679Z,10.51
2018-10-17T01:08:51.208Z,10.48
2018-10-17T01:11:19.765Z,10.51
2018-10-17T01:13:48.257Z,10.47
2018-10-17T01:16:16.783Z,10.46
2018-10-17T01:18:45.286Z,10.45
2018-10-17T01:21:13.784Z,10.38
2018-10-17T01:23:43.783Z,10.35
2018-10-17T01:26:12.361Z,10.36
2018-10-17T01:28:42.752Z,10.30
2018-10-17T01:31:11.289Z,10.27
2018-10-17T01:33:40.823Z,10.31
2018-10-17T01:36:09.329Z,10.23
2018-10-17T01:38:37.995Z,10.17
2018-10-17T01:41:06.561Z,10.12
2018-10-17T01:43:35.079Z,10.11
2018-10-17T01:46:03.603Z,10.08
2018-10-17T01:48:32.110Z,10.07
2018-10-17T01:51:00.715Z,10.00
2018-10-17T01:53:29.462Z,10.01
2018-10-17T01:55:58.039Z,10.02
2018-10-17T01:58:26.547Z,9.98
2018-10-17T02:00:55.086Z,10.03
2018-10-17T02:03:23.610Z,10.03
2018-10-17T02:05:52.122Z,9.98
2018-10-17T02:08:20.641Z,9.96
2018-10-17T02:10:49.195Z,9.99
2018-10-17T02:13:20.318Z,10.01
2018-10-17T02:15:50.170Z,10.02
2018-10-17T02:18:18.928Z,9.98
2018-10-17T02:20:47.442Z,9.93
2018-10-17T02:23:15.974Z,9.87
2018-10-17T02:25:44.525Z,9.78
2018-10-17T02:28:13.063Z,9.73
2018-10-17T02:30:41.584Z,9.73
2018-10-17T02:33:10.098Z,9.69
2018-10-17T02:35:38.603Z,9.65
2018-10-17T02:38:07.115Z,9.62
2018-10-17T02:40:35.634Z,9.63
2018-10-17T02:43:04.249Z,9.60
2018-10-17T02:45:32.666Z,9.62
2018-10-17T02:48:01.160Z,9.59
2018-10-17T02:50:29.647Z,9.52
2018-10-17T02:52:58.192Z,9.61
2018-10-17T02:55:26.725Z,9.55
2018-10-17T02:57:55.263Z,9.49
2018-10-17T03:00:23.776Z,9.47
2018-10-17T03:02:52.284Z,9.50
2018-10-17T03:05:20.887Z,9.48
2018-10-17T03:07:49.354Z,9.52
2018-10-17T03:10:17.855Z,9.52
2018-10-17T03:12:46.346Z,9.46
2018-10-17T03:15:14.879Z,9.46
2018-10-17T03:17:43.414Z,9.43
2018-10-17T03:20:12.218Z,9.36
2018-10-17T03:22:40.791Z,9.30
2018-10-17T03:25:10.266Z,9.33
2018-10-17T03:27:38.770Z,9.22
2018-10-17T03:30:07.434Z,9.23
2018-10-17T03:32:35.929Z,9.18
2018-10-17T03:35:04.480Z,9.10
2018-10-17T03:37:32.950Z,9.06
2018-10-17T03:40:01.585Z,9.06
2018-10-17T03:42:30.094Z,9.04
2018-10-17T03:44:58.600Z,9.07
2018-10-17T03:47:27.075Z,9.06
2018-10-17T03:49:55.649Z,9.06
2018-10-17T03:52:24.121Z,9.08
2018-10-17T03:54:52.640Z,9.08
2018-10-17T03:57:21.111Z,9.01
2018-10-17T03:59:49.735Z,8.99
2018-10-17T04:02:18.989Z,9.01
2018-10-17T04:04:47.516Z,8.97
2018-10-17T04:07:16.016Z,8.96
2018-10-17T04:09:44.525Z,8.93
2018-10-17T04:12:13.039Z,8.90
2018-10-17T04:14:41.536Z,8.93
2018-10-17T04:17:10.186Z,8.97
2018-10-17T04:19:38.667Z,8.99
2018-10-17T04:22:07.164Z,8.93
2018-10-17T04:24:35.668Z,8.90
2018-10-17T04:27:04.214Z,8.92
2018-10-17T04:29:32.731Z,8.94
2018-10-17T04:34:53.837Z,8.95
2018-10-17T04:37:22.338Z,9.01
2018-10-17T04:39:51.169Z,9.05
2018-10-17T04:42:19.651Z,9.09
2018-10-17T04:44:48.151Z,8.95
2018-10-17T04:47:16.789Z,8.96
2018-10-17T04:49:45.179Z,8.97
2018-10-17T04:52:13.675Z,8.93
2018-10-17T04:54:42.218Z,8.96
2018-10-17T04:57:10.726Z,8.98
2018-10-17T04:59:39.227Z,9.01
2018-10-17T05:02:07.716Z,8.95
2018-10-17T05:04:36.289Z,8.85
2018-10-17T05:07:04.790Z,8.87
2018-10-17T05:09:33.310Z,8.83
2018-10-17T05:12:01.796Z,8.86
2018-10-17T05:14:30.295Z,8.87
2018-10-17T05:19:51.868Z,8.82
2018-10-17T05:22:20.390Z,8.75
2018-10-17T05:24:48.877Z,8.78
2018-10-17T05:27:17.394Z,8.79
2018-10-17T05:29:45.992Z,8.77
2018-10-17T05:32:14.429Z,8.74
2018-10-17T05:34:42.970Z,8.82
2018-10-17T05:37:11.592Z,8.87
2018-10-17T05:39:40.016Z,8.86
2018-10-17T05:42:08.536Z,8.91
2018-10-17T05:44:37.144Z,8.91
2018-10-17T05:47:05.875Z,8.93
2018-10-17T05:49:34.367Z,8.91
2018-10-17T05:52:02.946Z,8.91
2018-10-17T05:54:31.474Z,8.92
2018-10-17T05:56:59.966Z,8.93
2018-10-17T05:59:28.825Z,8.85
2018-10-17T06:01:59.584Z,8.83
2018-10-17T06:04:28.098Z,8.83
2018-10-17T06:06:56.633Z,8.74
2018-10-17T06:09:25.133Z,8.71
2018-10-17T06:11:53.659Z,8.78
2018-10-17T06:14:22.148Z,8.80
2018-10-17T06:16:50.732Z,8.92
2018-10-17T06:19:19.556Z,9.04
2018-10-17T06:21:48.059Z,8.96
2018-10-17T06:24:16.582Z,9.02
2018-10-17T06:26:45.086Z,9.09
2018-10-17T06:29:13.641Z,9.14
2018-10-17T06:31:42.091Z,9.19
2018-10-17T06:34:10.672Z,9.14
2018-10-17T06:36:39.120Z,9.20
2018-10-17T06:39:09.811Z,9.25
2018-10-17T06:41:38.307Z,9.37
2018-10-17T06:44:07.376Z,9.45
2018-10-17T06:46:36.143Z,9.50
2018-10-17T06:49:04.787Z,9.54
2018-10-17T06:51:33.254Z,9.58
2018-10-17T06:54:01.831Z,9.65
2018-10-17T06:56:30.531Z,9.74
2018-10-17T06:58:59.089Z,9.79
2018-10-17T07:01:27.551Z,10.07
2018-10-17T07:03:56.102Z,10.30
2018-10-17T07:06:24.619Z,10.22
2018-10-17T07:08:53.113Z,10.38
2018-10-17T07:11:21.754Z,10.35
2018-10-17T07:13:50.183Z,10.32
2018-10-17T07:16:18.843Z,10.36
2018-10-17T07:18:47.349Z,10.43
2018-10-17T07:21:15.842Z,10.55
2018-10-17T07:23:44.450Z,10.65
2018-10-17T07:26:12.959Z,10.78
2018-10-17T07:28:44.578Z,10.86
2018-10-17T07:31:13.092Z,10.88
2018-10-17T07:33:43.346Z,11.00
2018-10-17T07:36:11.911Z,11.06
2018-10-17T07:38:41.947Z,11.22
2018-10-17T07:41:10.518Z,11.32
2018-10-17T07:43:39.212Z,11.30
2018-10-17T07:46:07.718Z,11.51
2018-10-17T07:48:36.218Z,11.69
2018-10-17T07:51:05.100Z,11.92
2018-10-17T07:53:33.910Z,11.88
2018-10-17T07:56:02.684Z,12.05
2018-10-17T07:58:31.210Z,12.14
2018-10-17T08:00:59.839Z,12.06
2018-10-17T08:03:28.375Z,12.22
2018-10-17T08:05:56.914Z,12.52
2018-10-17T08:08:25.386Z,12.61
2018-10-17T08:10:53.918Z,12.58
2018-10-17T08:13:22.429Z,12.77
2018-10-17T08:15:50.947Z,12.75
2018-10-17T08:18:19.536Z,12.99
2018-10-17T08:20:48.021Z,12.92
2018-10-17T08:23:16.533Z,13.12
2018-10-17T08:25:45.024Z,13.13
2018-10-17T08:28:13.517Z,13.42
2018-10-17T08:30:42.037Z,13.45
2018-10-17T08:33:10.632Z,13.59
2018-10-17T08:35:39.285Z,13.73
2018-10-17T08:38:07.777Z,13.82
2018-10-17T08:40:36.227Z,13.91
2018-10-17T08:43:05.375Z,14.29
2018-10-17T08:45:34.006Z,14.43
2018-10-17T08:48:02.503Z,14.55
2018-10-17T08:50:31.066Z,14.62
2018-10-17T08:52:59.516Z,14.77
2018-10-17T08:55:28.047Z,14.91
2018-10-17T08:57:56.669Z,15.13
2018-10-17T09:00:25.274Z,15.49
2018-10-17T09:02:53.778Z,16.01
2018-10-17T09:05:22.292Z,16.33
2018-10-17T09:07:50.985Z,16.78
2018-10-17T09:10:19.359Z,17.17
2018-10-17T09:12:47.875Z,17.74
2018-10-17T09:15:16.382Z,17.77
2018-10-17T09:17:44.898Z,18.00
2018-10-17T09:20:13.747Z,17.99
2018-10-17T09:22:42.073Z,18.07
2018-10-17T09:25:10.545Z,18.19
2018-10-17T09:27:39.062Z,18.31
2018-10-17T09:30:09.188Z,18.66
2018-10-17T09:32:37.756Z,19.30
2018-10-17T09:35:07.174Z,19.60
2018-10-17T09:37:35.835Z,20.09
2018-10-17T09:40:04.548Z,20.25
2018-10-17T09:42:33.073Z,20.41
2018-10-17T09:45:01.591Z,20.51
2018-10-17T09:47:30.118Z,20.61
2018-10-17T09:49:58.692Z,21.14
2018-10-17T09:52:27.214Z,21.51
2018-10-17T09:54:55.735Z,20.68
2018-10-17T09:57:24.251Z,21.30
2018-10-17T09:59:52.788Z,21.32
2018-10-17T10:02:22.184Z,20.86
2018-10-17T10:04:50.732Z,20.88
2018-10-17T10:07:19.269Z,21.01
2018-10-17T10:09:47.798Z,20.70
2018-10-17T10:12:16.402Z,20.71
2018-10-17T10:14:44.948Z,21.11
2018-10-17T10:17:13.558Z,21.24
2018-10-17T10:19:42.047Z,21.51
2018-10-17T10:22:10.594Z,21.30
2018-10-17T10:24:39.129Z,22.18
2018-10-17T10:27:07.622Z,23.02
2018-10-17T10:29:36.177Z,22.94
2018-10-17T10:32:04.762Z,23.45
2018-10-17T10:34:33.302Z,23.02
2018-10-17T10:37:01.807Z,22.85
2018-10-17T10:39:30.302Z,23.10
2018-10-17T10:41:58.882Z,23.25
2018-10-17T10:44:27.366Z,23.76
2018-10-17T10:46:55.919Z,23.55
2018-10-17T10:49:24.446Z,23.50
2018-10-17T10:51:52.952Z,23.54
2018-10-17T10:54:21.598Z,23.08
2018-10-17T10:56:50.840Z,22.77
2018-10-17T10:59:19.615Z,23.11
2018-10-17T11:01:48.092Z,23.09
2018-10-17T11:04:16.622Z,22.63
2018-10-17T11:06:45.151Z,22.38
2018-10-17T11:09:13.667Z,22.13
2018-10-17T11:11:42.160Z,22.58
2018-10-17T11:14:10.841Z,22.34
2018-10-17T11:16:39.283Z,22.20
2018-10-17T11:19:07.817Z,22.05
2018-10-17T11:21:36.459Z,21.85
2018-10-17T11:24:05.152Z,22.09
2018-10-17T11:26:33.682Z,22.11
2018-10-17T11:29:02.262Z,21.97
2018-10-17T11:31:30.905Z,21.91
2018-10-17T11:33:59.367Z,22.10
2018-10-17T11:36:27.851Z,21.75
2018-10-17T11:38:56.424Z,22.29
2018-10-17T11:41:25.015Z,22.48
2018-10-17T11:43:53.559Z,22.27
2018-10-17T11:46:22.199Z,22.26
2018-10-17T11:48:58.255Z,22.25
2018-10-17T11:51:26.815Z,22.59
2018-10-17T11:53:55.319Z,22.15
2018-10-17T11:56:23.822Z,22.46
2018-10-17T11:58:52.407Z,22.33
2018-10-17T12:01:20.930Z,22.40
2018-10-17T12:03:49.642Z,22.45
2018-10-17T12:06:18.133Z,22.39
2018-10-17T12:08:46.518Z,22.25
2018-10-17T12:11:15.213Z,22.28
2018-10-17T12:13:44.720Z,22.26
2018-10-17T12:16:13.260Z,22.23
2018-10-17T12:18:42.985Z,22.35
2018-10-17T12:21:11.714Z,22.48
2018-10-17T12:23:41.360Z,22.18
2018-10-17T12:26:09.896Z,21.85
2018-10-17T12:28:38.592Z,21.81
2018-10-17T12:31:07.055Z,21.99
2018-10-17T12:33:35.627Z,22.01
2018-10-17T12:36:04.269Z,22.15
2018-10-17T12:38:32.749Z,21.83
2018-10-17T12:41:01.402Z,21.65
2018-10-17T12:43:29.790Z,21.63
2018-10-17T12:45:58.334Z,21.62
2018-10-17T12:48:26.841Z,21.54
2018-10-17T12:50:55.364Z,21.74
2018-10-17T12:53:23.908Z,21.68
2018-10-17T12:55:52.423Z,21.78
2018-10-17T12:58:20.943Z,21.82
2018-10-17T13:00:49.487Z,22.05
2018-10-17T13:03:18.035Z,22.19
2018-10-17T13:05:46.530Z,22.21
2018-10-17T13:08:15.025Z,22.16
2018-10-17T13:10:43.546Z,22.06
2018-10-17T13:13:12.123Z,22.05
2018-10-17T13:15:40.583Z,22.00
2018-10-17T13:18:09.091Z,22.09
2018-10-17T13:20:37.715Z,22.26
2018-10-17T13:23:06.618Z,22.26
2018-10-17T13:25:35.106Z,22.22
2018-10-17T13:28:03.661Z,22.27
2018-10-17T13:30:32.191Z,22.25
2018-10-17T13:33:00.737Z,22.26
2018-10-17T13:35:29.251Z,21.95
2018-10-17T13:37:57.752Z,21.78
2018-10-17T13:40:26.258Z,21.82
2018-10-17T13:42:54.771Z,21.94
2018-10-17T13:45:23.294Z,21.73
2018-10-17T13:47:51.814Z,21.43
2018-10-17T13:50:20.319Z,21.49
2018-10-17T13:52:48.845Z,21.43
2018-10-17T13:55:17.376Z,21.54
2018-10-17T13:57:45.930Z,21.68
2018-10-17T14:00:14.402Z,21.66
2018-10-17T14:02:43.767Z,21.69
2018-10-17T14:05:12.311Z,21.73
2018-10-17T14:07:40.816Z,21.78
2018-10-17T14:10:09.349Z,21.81
2018-10-17T14:12:37.888Z,21.75
2018-10-17T14:15:06.664Z,21.72
2018-10-17T14:17:35.147Z,21.59
2018-10-17T14:20:03.725Z,21.69
2018-10-17T14:22:32.246Z,21.52
2018-10-17T14:25:00.762Z,21.56
2018-10-17T14:27:29.301Z,21.59
2018-10-17T14:29:57.876Z,21.61
2018-10-17T14:32:26.383Z,21.39
2018-10-17T14:34:54.890Z,21.22
2018-10-17T14:37:23.439Z,21.15
2018-10-17T14:39:52.003Z,21.28
2018-10-17T14:42:20.602Z,21.34
2018-10-17T14:44:49.126Z,21.26
2018-10-17T14:47:18.193Z,21.28
2018-10-17T14:49:46.711Z,21.18
2018-10-17T14:52:15.591Z,21.07
2018-10-17T14:54:44.192Z,21.01
2018-10-17T14:57:12.752Z,21.06
2018-10-17T14:59:41.228Z,21.04
2018-10-17T15:02:09.742Z,21.01
2018-10-17T15:04:38.250Z,20.89
2018-10-17T15:07:06.814Z,20.87
2018-10-17T15:09:35.323Z,20.77
2018-10-17T15:12:03.956Z,20.68
2018-10-17T15:14:32.372Z,20.62
2018-10-17T15:17:00.961Z,20.47
2018-10-17T15:19:29.434Z,20.39
2018-10-17T15:21:58.103Z,20.41
2018-10-17T15:24:26.645Z,20.28
2018-10-17T15:26:55.171Z,20.15
2018-10-17T15:29:23.667Z,20.06
2018-10-17T15:31:52.266Z,19.78
2018-10-17T15:34:20.751Z,19.60
2018-10-17T15:36:49.307Z,19.45
2018-10-17T15:39:17.883Z,19.19
2018-10-17T15:41:46.382Z,19.18
2018-10-17T15:44:14.911Z,19.02
2018-10-17T15:46:43.419Z,19.01
2018-10-17T15:49:11.978Z,18.87
2018-10-17T15:51:40.494Z,18.78
2018-10-17T15:54:09.074Z,18.74
2018-10-17T15:56:37.595Z,18.74
2018-10-17T15:59:06.280Z,18.80
2018-10-17T16:01:34.793Z,18.44
2018-10-17T16:04:03.335Z,18.29
2018-10-17T16:06:31.839Z,18.20
2018-10-17T16:09:00.367Z,18.05
2018-10-17T16:11:28.939Z,17.96
2018-10-17T16:13:57.876Z,17.99
2018-10-17T16:16:26.424Z,17.85
2018-10-17T16:18:54.942Z,17.86
2018-10-17T16:21:23.503Z,17.82
2018-10-17T16:23:52.076Z,17.77
2018-10-17T16:29:13.266Z,17.51
2018-10-17T16:31:41.753Z,17.47
2018-10-17T16:34:10.266Z,17.30
2018-10-17T16:36:38.764Z,17.18
2018-10-17T16:39:10.034Z,17.06
2018-10-17T16:41:38.535Z,17.13
2018-10-17T16:44:07.300Z,17.08
2018-10-17T16:46:36.107Z,17.13
2018-10-17T16:49:04.683Z,16.98
2018-10-17T16:51:33.283Z,16.91
2018-10-17T16:54:01.863Z,16.79
2018-10-17T16:56:30.331Z,16.62
2018-10-17T16:58:58.925Z,16.61
2018-10-17T17:01:27.442Z,16.63
2018-10-17T17:03:55.970Z,16.46
2018-10-17T17:06:24.455Z,16.35
2018-10-17T17:08:53.010Z,16.42
2018-10-17T17:11:21.486Z,16.25
2018-10-17T17:13:49.986Z,16.16
2018-10-17T17:16:18.585Z,16.12
2018-10-17T17:18:47.079Z,16.03
2018-10-17T17:21:15.772Z,16.05
2018-10-17T17:23:45.242Z,15.99
2018-10-17T17:26:13.764Z,15.88
2018-10-17T17:28:43.138Z,15.85
2018-10-17T17:31:11.644Z,15.66
2018-10-17T17:33:41.222Z,15.69
2018-10-17T17:36:09.754Z,15.56
2018-10-17T17:38:38.363Z,15.49
2018-10-17T17:41:06.983Z,15.39
2018-10-17T17:43:35.523Z,15.33
2018-10-17T17:46:04.070Z,15.34
2018-10-17T17:48:32.547Z,15.36
2018-10-17T17:51:01.078Z,15.34
2018-10-17T17:53:29.584Z,15.22
2018-10-17T17:55:58.079Z,15.29
2018-10-17T17:58:27.035Z,15.26
2018-10-17T18:00:55.518Z,15.17
2018-10-17T18:03:24.877Z,15.02
2018-10-17T18:05:53.374Z,14.91
2018-10-17T18:08:21.911Z,14.74
2018-10-17T18:10:50.428Z,14.51
2018-10-17T18:13:19.154Z,14.47
2018-10-17T18:15:47.679Z,14.42
2018-10-17T18:18:16.929Z,14.38
2018-10-17T18:20:45.456Z,14.47
2018-10-17T18:23:13.974Z,14.40
2018-10-17T18:25:42.774Z,14.35
2018-10-17T18:28:11.442Z,14.23
2018-10-17T18:30:39.870Z,14.26
2018-10-17T18:33:08.434Z,14.34
2018-10-17T18:35:36.951Z,14.40
2018-10-17T18:38:05.721Z,14.41
2018-10-17T18:40:37.357Z,14.46
2018-10-17T18:43:05.903Z,14.49
2018-10-17T18:45:34.467Z,14.43
2018-10-17T18:48:03.007Z,14.43
2018-10-17T18:50:31.531Z,14.36
2018-10-17T18:53:00.036Z,14.36
2018-10-17T18:55:28.752Z,14.30
2018-10-17T18:57:57.243Z,14.28
2018-10-17T19:00:25.738Z,14.30
2018-10-17T19:02:54.242Z,14.27
2018-10-17T19:05:22.758Z,14.24
2018-10-17T19:07:51.291Z,14.18
2018-10-17T19:10:19.955Z,14.13
2018-10-17T19:12:48.450Z,14.12
2018-10-17T19:15:17.028Z,14.12
2018-10-17T19:17:45.513Z,14.05
2018-10-17T19:20:14.036Z,13.92
2018-10-17T19:22:42.574Z,13.97
2018-10-17T19:25:11.731Z,13.93
2018-10-17T19:27:40.258Z,13.84
2018-10-17T19:30:09.824Z,13.93
2018-10-17T19:32:38.350Z,13.92
2018-10-17T19:35:07.279Z,13.95
2018-10-17T19:37:35.763Z,13.87
2018-10-17T19:40:04.402Z,13.88
2018-10-17T19:42:32.922Z,13.89
2018-10-17T19:45:02.606Z,13.91
2018-10-17T19:47:31.097Z,13.91
2018-10-17T19:49:59.611Z,13.91
2018-10-17T19:52:28.123Z,13.84
2018-10-17T19:54:56.658Z,13.72
2018-10-17T19:57:25.167Z,13.62
2018-10-17T19:59:53.693Z,13.60
2018-10-17T20:02:22.974Z,13.42
2018-10-17T20:04:51.484Z,13.43
2018-10-17T20:07:20.123Z,13.42
2018-10-17T20:09:48.627Z,13.33
2018-10-17T20:12:17.143Z,13.30
2018-10-17T20:14:45.675Z,13.34
2018-10-17T20:17:14.177Z,13.26
2018-10-17T20:19:42.687Z,13.16
2018-10-17T20:22:12.231Z,13.06
2018-10-17T20:24:41.234Z,12.98
2018-10-17T20:27:10.189Z,12.99
2018-10-17T20:29:38.957Z,13.06
2018-10-17T20:32:08.022Z,13.03
2018-10-17T20:34:36.555Z,12.89
2018-10-17T20:37:05.182Z,12.89
2018-10-17T20:39:33.847Z,12.89
2018-10-17T20:42:02.473Z,12.85
2018-10-17T20:44:30.967Z,12.87
2018-10-17T20:46:59.488Z,12.85
2018-10-17T20:49:28.054Z,12.89
2018-10-17T20:51:56.550Z,12.91
2018-10-17T20:54:25.090Z,12.87
2018-10-17T20:56:53.604Z,12.84
2018-10-17T20:59:22.111Z,12.69
2018-10-17T21:01:50.770Z,12.64
2018-10-17T21:04:19.251Z,12.60
2018-10-17T21:06:47.777Z,12.60
2018-10-17T21:09:16.315Z,12.46
2018-10-17T21:11:44.813Z,12.56
2018-10-17T21:14:15.443Z,12.56
2018-10-17T21:16:43.939Z,12.53
2018-10-17T21:19:12.435Z,12.61
2018-10-17T21:21:40.959Z,12.62
2018-10-17T21:24:09.478Z,12.53
2018-10-17T21:26:38.003Z,12.41
2018-10-17T21:29:06.834Z,12.36
2018-10-17T21:31:35.324Z,12.30
2018-10-17T21:34:03.886Z,12.20
2018-10-17T21:36:32.392Z,12.22
2018-10-17T21:39:00.900Z,12.26
2018-10-17T21:41:29.404Z,12.31
2018-10-17T21:43:57.962Z,12.30
2018-10-17T21:46:26.466Z,12.33
2018-10-17T21:48:54.954Z,12.35
2018-10-17T21:51:23.466Z,12.42
2018-10-17T21:53:51.994Z,12.39
2018-10-17T21:56:20.511Z,12.26
2018-10-17T21:58:49.019Z,12.25
2018-10-17T22:01:17.536Z,12.30
2018-10-17T22:03:46.038Z,12.31
2018-10-17T22:06:14.538Z,12.27
2018-10-17T22:08:43.920Z,12.08
2018-10-17T22:11:12.416Z,12.04
2018-10-17T22:13:41.721Z,12.04
2018-10-17T22:16:10.246Z,12.05
2018-10-17T22:18:38.868Z,12.06
2018-10-17T22:21:07.672Z,12.07
2018-10-17T22:23:36.176Z,12.09
2018-10-17T22:26:04.716Z,12.13
2018-10-17T22:28:33.221Z,12.05
2018-10-17T22:31:01.769Z,12.02
2018-10-17T22:33:30.269Z,11.94
2018-10-17T22:35:58.774Z,11.83
2018-10-17T22:38:27.317Z,11.83
2018-10-17T22:40:55.856Z,11.85
2018-10-17T22:43:24.343Z,11.89
2018-10-17T22:45:52.834Z,11.88
2018-10-17T22:48:21.335Z,11.84
2018-10-17T22:50:49.840Z,11.88
2018-10-17T22:53:18.343Z,11.86
2018-10-17T22:55:46.843Z,11.83
2018-10-17T22:58:27.135Z,11.72
2018-10-17T23:00:55.632Z,11.64
2018-10-17T23:03:24.155Z,11.66
2018-10-17T23:05:52.654Z,11.63
2018-10-17T23:08:21.155Z,11.69
2018-10-17T23:10:49.710Z,11.60
2018-10-17T23:13:18.242Z,11.56
2018-10-17T23:15:46.758Z,11.34
2018-10-17T23:18:15.266Z,11.28
2018-10-17T23:20:43.754Z,11.32
2018-10-17T23:23:12.243Z,11.31
2018-10-17T23:25:40.763Z,11.23
2018-10-17T23:28:09.262Z,11.20
2018-10-17T23:30:37.778Z,11.23
2018-10-17T23:33:06.280Z,11.31
2018-10-17T23:35:34.786Z,11.31
2018-10-17T23:38:03.348Z,11.35
2018-10-17T23:40:31.882Z,11.33
2018-10-17T23:43:00.382Z,11.36
2018-10-17T23:45:28.887Z,11.27
2018-10-17T23:47:57.430Z,11.18
2018-10-17T23:50:25.983Z,11.21
2018-10-17T23:52:54.482Z,11.24
2018-10-17T23:55:22.981Z,11.30
2018-10-17T23:57:51.494Z,11.31
